EGHH/BOH METAR and TAF weather

Enter ICAO airport designator
Station Type Date Time Source
EGHH METAR 2018/07/21 11:50 UTC NOAA

EGHH 211150Z 19007KT 140V230 9999 FEW036 24/13 Q1014


Station Type Date Time Source
EGHH Decoded METAR 2018/07/21 11:50 UTC NOAA

Bournemouth Airport, United Kingdom (EGHH) 50-47N 001-50W 0M
Jul 21, 2018 - 07:50 AM EDT / 2018.07.21 1150 UTC
Wind: from the S (190 degrees) at 8 MPH (7 KT) (direction variable):0
Visibility: greater than 7 mile(s):0
Sky conditions: mostly clear
Temperature: 75 F (24 C)
Dew Point: 55 F (13 C)
Relative Humidity: 50%
Pressure (altimeter): 29.94 in. Hg (1014 hPa)
ob: EGHH 211150Z 19007KT 140V230 9999 FEW036 24/13 Q1014
cycle: 12

Station Type Date Time Source
EGHH TAF 2013/12/01 21:21 UTC NOAA

TAF TAF EGHH 010016Z 3021/0106 CNL


Example: see airport list